createdAt,value
2018-08-22T00:00:15.119Z,22.65
2018-08-22T00:02:43.617Z,22.67
2018-08-22T00:05:12.141Z,22.69
2018-08-22T00:07:40.633Z,22.67
2018-08-22T00:10:09.573Z,22.61
2018-08-22T00:12:38.140Z,22.60
2018-08-22T00:15:06.687Z,22.64
2018-08-22T00:17:35.177Z,22.57
2018-08-22T00:20:03.724Z,22.56
2018-08-22T00:22:32.277Z,22.46
2018-08-22T00:25:00.782Z,22.42
2018-08-22T00:27:29.253Z,22.37
2018-08-22T00:29:57.805Z,22.33
2018-08-22T00:32:26.321Z,22.29
2018-08-22T00:34:54.841Z,22.20
2018-08-22T00:37:23.330Z,22.32
2018-08-22T00:39:51.874Z,22.28
2018-08-22T00:42:20.378Z,22.24
2018-08-22T00:44:48.886Z,22.22
2018-08-22T00:47:17.451Z,22.20
2018-08-22T00:49:46.004Z,22.11
2018-08-22T00:52:14.553Z,22.06
2018-08-22T00:54:43.098Z,22.07
2018-08-22T00:57:11.593Z,22.09
2018-08-22T00:59:40.074Z,22.03
2018-08-22T01:02:08.593Z,22.04
2018-08-22T01:04:37.090Z,21.95
2018-08-22T01:07:05.177Z,21.92
2018-08-22T01:09:33.645Z,21.88
2018-08-22T01:12:02.154Z,21.90
2018-08-22T01:14:30.654Z,21.89
2018-08-22T01:16:59.193Z,21.83
2018-08-22T01:19:27.693Z,21.80
2018-08-22T01:21:56.221Z,21.76
2018-08-22T01:24:24.729Z,21.77
2018-08-22T01:26:53.266Z,21.68
2018-08-22T01:29:21.776Z,21.64
2018-08-22T01:31:50.303Z,21.57
2018-08-22T01:34:18.785Z,21.64
2018-08-22T01:36:47.309Z,21.62
2018-08-22T01:39:15.770Z,21.67
2018-08-22T01:41:44.287Z,21.53
2018-08-22T01:44:12.810Z,21.45
2018-08-22T01:46:41.349Z,21.40
2018-08-22T01:49:09.824Z,21.35
2018-08-22T01:51:38.329Z,21.28
2018-08-22T01:54:06.818Z,21.18
2018-08-22T01:56:35.341Z,21.16
2018-08-22T01:59:03.885Z,21.18
2018-08-22T02:01:32.389Z,21.21
2018-08-22T02:04:00.863Z,21.23
2018-08-22T02:06:29.374Z,21.19
2018-08-22T02:08:57.860Z,21.16
2018-08-22T02:11:26.395Z,21.22
2018-08-22T02:13:54.937Z,21.16
2018-08-22T02:16:23.445Z,21.01
2018-08-22T02:18:51.921Z,20.92
2018-08-22T02:21:20.458Z,20.81
2018-08-22T02:23:48.957Z,20.85
2018-08-22T02:26:17.467Z,20.83
2018-08-22T02:28:45.930Z,20.78
2018-08-22T02:31:14.446Z,20.82
2018-08-22T02:33:42.927Z,20.80
2018-08-22T02:36:11.438Z,20.79
2018-08-22T02:38:39.893Z,20.88
2018-08-22T02:41:08.392Z,20.79
2018-08-22T02:43:36.878Z,20.67
2018-08-22T02:46:05.937Z,20.61
2018-08-22T02:48:39.790Z,20.55
2018-08-22T02:51:08.338Z,20.48
2018-08-22T02:53:36.873Z,20.45
2018-08-22T02:56:05.366Z,20.35
2018-08-22T02:58:33.933Z,20.30
2018-08-22T03:01:02.445Z,20.38
2018-08-22T03:03:30.959Z,20.41
2018-08-22T03:05:59.481Z,20.44
2018-08-22T03:08:28.007Z,20.40
2018-08-22T03:10:56.501Z,20.42
2018-08-22T03:13:25.033Z,20.36
2018-08-22T03:15:53.521Z,20.34
2018-08-22T03:18:22.110Z,20.38
2018-08-22T03:20:50.586Z,20.36
2018-08-22T03:23:19.097Z,20.42
2018-08-22T03:25:47.843Z,20.31
2018-08-22T03:28:16.383Z,20.33
2018-08-22T03:30:45.137Z,20.26
2018-08-22T03:33:13.636Z,20.22
2018-08-22T03:35:42.102Z,20.14
2018-08-22T03:38:10.610Z,20.23
2018-08-22T03:40:39.119Z,20.25
2018-08-22T03:43:07.629Z,20.21
2018-08-22T03:45:36.166Z,20.11
2018-08-22T03:48:04.687Z,20.11
2018-08-22T03:50:33.174Z,20.10
2018-08-22T03:53:01.698Z,20.07
2018-08-22T03:55:30.224Z,20.06
2018-08-22T03:57:58.765Z,20.02
2018-08-22T04:00:27.286Z,19.99
2018-08-22T04:02:55.826Z,20.00
2018-08-22T04:05:24.309Z,20.00
2018-08-22T04:07:52.850Z,19.92
2018-08-22T04:10:21.346Z,20.00
2018-08-22T04:12:49.863Z,19.95
2018-08-22T04:15:18.362Z,19.98
2018-08-22T04:17:46.890Z,19.92
2018-08-22T04:20:15.379Z,19.86
2018-08-22T04:22:43.887Z,19.88
2018-08-22T04:25:12.395Z,19.97
2018-08-22T04:27:40.922Z,19.97
2018-08-22T04:30:09.401Z,20.00
2018-08-22T04:32:37.916Z,19.97
2018-08-22T04:35:06.408Z,20.08
2018-08-22T04:37:34.914Z,20.00
2018-08-22T04:40:03.401Z,20.01
2018-08-22T04:42:31.938Z,19.86
2018-08-22T04:45:00.413Z,19.80
2018-08-22T04:47:28.945Z,19.83
2018-08-22T04:49:57.442Z,19.71
2018-08-22T04:52:25.905Z,19.82
2018-08-22T04:54:54.425Z,19.76
2018-08-22T04:57:22.915Z,19.90
2018-08-22T04:59:51.458Z,20.02
2018-08-22T05:02:19.945Z,20.19
2018-08-22T05:04:48.458Z,20.25
2018-08-22T05:07:17.302Z,20.33
2018-08-22T05:09:45.823Z,20.39
2018-08-22T05:12:14.336Z,20.26
2018-08-22T05:14:42.929Z,20.13
2018-08-22T05:17:11.422Z,20.20
2018-08-22T05:19:41.725Z,20.36
2018-08-22T05:22:12.030Z,20.63
2018-08-22T05:24:40.541Z,20.83
2018-08-22T05:27:09.098Z,20.86
2018-08-22T05:29:38.937Z,21.13
2018-08-22T05:32:07.656Z,21.39
2018-08-22T05:34:36.412Z,21.54
2018-08-22T05:37:05.173Z,21.61
2018-08-22T05:39:33.706Z,21.76
2018-08-22T05:42:04.034Z,21.85
2018-08-22T05:44:32.571Z,22.08
2018-08-22T05:47:01.219Z,22.13
2018-08-22T05:49:31.906Z,22.19
2018-08-22T05:52:00.413Z,22.25
2018-08-22T05:54:28.938Z,22.45
2018-08-22T05:57:00.511Z,22.59
2018-08-22T05:59:29.035Z,22.61
2018-08-22T06:01:57.546Z,22.62
2018-08-22T06:04:26.093Z,22.80
2018-08-22T06:06:54.594Z,22.73
2018-08-22T06:09:23.131Z,22.70
2018-08-22T06:11:51.610Z,23.09
2018-08-22T06:14:20.122Z,23.09
2018-08-22T06:16:48.683Z,22.92
2018-08-22T06:19:17.208Z,23.06
2018-08-22T06:21:45.718Z,23.30
2018-08-22T06:24:14.225Z,23.62
2018-08-22T06:26:42.697Z,23.89
2018-08-22T06:29:11.217Z,24.25
2018-08-22T06:31:39.713Z,24.53
2018-08-22T06:34:08.275Z,24.69
2018-08-22T06:36:36.793Z,24.90
2018-08-22T06:39:08.219Z,25.13
2018-08-22T06:41:36.707Z,25.30
2018-08-22T06:44:05.289Z,25.37
2018-08-22T06:46:33.798Z,25.30
2018-08-22T06:49:02.328Z,25.43
2018-08-22T06:51:30.816Z,25.11
2018-08-22T06:53:59.313Z,25.36
2018-08-22T06:56:27.831Z,25.73
2018-08-22T06:58:56.374Z,26.06
2018-08-22T07:01:24.867Z,26.17
2018-08-22T07:03:53.394Z,26.53
2018-08-22T07:06:21.854Z,26.99
2018-08-22T07:08:50.338Z,26.64
2018-08-22T07:11:18.851Z,26.88
2018-08-22T07:13:47.351Z,26.58
2018-08-22T07:16:15.866Z,25.96
2018-08-22T07:18:44.358Z,26.50
2018-08-22T07:21:12.891Z,27.52
2018-08-22T07:23:41.378Z,28.73
2018-08-22T07:26:09.889Z,31.69
2018-08-22T07:28:38.390Z,33.36
2018-08-22T07:31:06.902Z,33.25
2018-08-22T07:33:35.388Z,34.77
2018-08-22T07:36:03.907Z,34.79
2018-08-22T07:38:32.412Z,34.33
2018-08-22T07:41:00.946Z,34.71
2018-08-22T07:43:29.439Z,34.51
2018-08-22T07:45:57.944Z,35.06
2018-08-22T07:48:26.421Z,36.36
2018-08-22T07:50:54.947Z,36.35
2018-08-22T07:53:23.502Z,34.97
2018-08-22T07:55:51.958Z,35.64
2018-08-22T07:58:20.454Z,36.67
2018-08-22T08:00:48.961Z,38.03
2018-08-22T08:03:17.501Z,38.92
2018-08-22T08:05:46.045Z,39.71
2018-08-22T08:08:14.606Z,39.97
2018-08-22T08:10:43.152Z,41.32
2018-08-22T08:13:16.938Z,39.34
2018-08-22T08:15:45.478Z,38.51
2018-08-22T08:18:13.969Z,38.36
2018-08-22T08:20:42.489Z,35.75
2018-08-22T08:23:10.994Z,33.76
2018-08-22T08:25:39.530Z,33.33
2018-08-22T08:28:08.005Z,32.57
2018-08-22T08:30:36.545Z,32.44
2018-08-22T08:33:05.081Z,32.07
2018-08-22T08:35:33.606Z,32.32
2018-08-22T08:38:02.117Z,32.16
2018-08-22T08:40:30.637Z,33.02
2018-08-22T08:42:59.185Z,33.73
2018-08-22T08:45:27.717Z,34.50
2018-08-22T08:47:56.197Z,34.06
2018-08-22T08:50:24.721Z,34.69
2018-08-22T08:52:53.249Z,37.53
2018-08-22T08:55:21.783Z,36.92
2018-08-22T08:57:50.272Z,36.62
2018-08-22T09:00:18.800Z,35.83
2018-08-22T09:02:47.286Z,35.46
2018-08-22T09:05:15.766Z,37.41
2018-08-22T09:07:44.299Z,36.77
2018-08-22T09:10:12.802Z,37.75
2018-08-22T09:12:41.330Z,37.10
2018-08-22T09:15:09.827Z,37.61
2018-08-22T09:17:38.345Z,38.03
2018-08-22T09:20:07.732Z,38.02
2018-08-22T09:22:36.294Z,37.05
2018-08-22T09:25:04.809Z,36.03
2018-08-22T09:27:33.322Z,37.05
2018-08-22T09:30:01.835Z,37.36
2018-08-22T09:32:30.589Z,39.94
2018-08-22T09:34:59.085Z,42.16
2018-08-22T09:37:27.621Z,40.46
2018-08-22T09:39:56.120Z,39.53
2018-08-22T09:42:24.739Z,40.28
2018-08-22T09:44:56.956Z,40.70
2018-08-22T09:47:25.562Z,41.33
2018-08-22T09:49:54.218Z,40.30
2018-08-22T09:52:22.802Z,40.17
2018-08-22T09:55:04.806Z,41.07
2018-08-22T09:57:33.369Z,41.27
2018-08-22T10:00:02.109Z,43.11
2018-08-22T10:02:30.931Z,44.42
2018-08-22T10:05:00.511Z,44.94
2018-08-22T10:07:29.125Z,43.96
2018-08-22T10:09:57.594Z,43.14
2018-08-22T10:12:26.120Z,41.73
2018-08-22T10:14:54.617Z,40.97
2018-08-22T10:17:23.217Z,42.67
2018-08-22T10:19:51.686Z,41.35
2018-08-22T10:22:20.201Z,42.14
2018-08-22T10:24:48.694Z,43.37
2018-08-22T10:27:17.240Z,42.88
2018-08-22T10:29:45.741Z,43.34
2018-08-22T10:32:14.286Z,43.96
2018-08-22T10:34:42.788Z,44.17
2018-08-22T10:37:11.297Z,44.21
2018-08-22T10:39:39.784Z,42.30
2018-08-22T10:42:08.242Z,42.78
2018-08-22T10:44:36.776Z,44.75
2018-08-22T10:47:05.230Z,43.06
2018-08-22T10:49:33.743Z,43.32
2018-08-22T10:52:02.241Z,44.67
2018-08-22T10:54:30.782Z,44.50
2018-08-22T10:56:59.580Z,45.00
2018-08-22T10:59:28.086Z,45.30
2018-08-22T11:01:56.612Z,44.74
2018-08-22T11:04:25.100Z,45.02
2018-08-22T11:06:53.594Z,45.14
2018-08-22T11:09:22.107Z,43.76
2018-08-22T11:11:50.606Z,44.37
2018-08-22T11:14:19.138Z,45.57
2018-08-22T11:16:47.631Z,43.08
2018-08-22T11:19:16.171Z,41.67
2018-08-22T11:21:55.750Z,42.97
2018-08-22T11:24:35.438Z,44.22
2018-08-22T11:27:15.021Z,45.22
2018-08-22T11:29:54.698Z,42.80
2018-08-22T11:32:34.287Z,42.83
2018-08-22T11:35:01.622Z,42.22
2018-08-22T11:37:30.260Z,43.62
2018-08-22T11:39:58.858Z,45.20
2018-08-22T11:42:27.387Z,45.69
2018-08-22T11:44:56.063Z,47.30
2018-08-22T11:47:24.697Z,47.50
2018-08-22T11:49:53.205Z,48.09
2018-08-22T11:52:21.709Z,46.86
2018-08-22T11:54:50.241Z,46.48
2018-08-22T11:57:18.787Z,43.95
2018-08-22T11:59:47.335Z,44.19
2018-08-22T12:02:15.877Z,45.13
2018-08-22T12:04:45.457Z,45.83
2018-08-22T12:07:13.942Z,45.58
2018-08-22T12:09:42.453Z,45.49
2018-08-22T12:12:10.948Z,45.82
2018-08-22T12:14:39.470Z,45.05
2018-08-22T12:17:08.032Z,45.31
2018-08-22T12:19:36.563Z,44.87
2018-08-22T12:22:05.070Z,42.98
2018-08-22T12:24:33.578Z,41.37
2018-08-22T12:27:02.062Z,41.21
2018-08-22T12:29:30.651Z,41.51
2018-08-22T12:31:59.155Z,41.17
2018-08-22T12:34:27.727Z,40.70
2018-08-22T12:36:56.272Z,41.31
2018-08-22T12:39:24.799Z,40.96
2018-08-22T12:41:53.282Z,42.11
2018-08-22T12:44:21.825Z,42.96
2018-08-22T12:46:50.313Z,43.28
2018-08-22T12:49:18.816Z,42.15
2018-08-22T12:51:47.334Z,42.91
2018-08-22T12:54:15.829Z,42.54
2018-08-22T12:56:44.366Z,42.52
2018-08-22T12:59:12.890Z,41.95
2018-08-22T13:01:41.431Z,42.20
2018-08-22T13:04:09.922Z,40.98
2018-08-22T13:06:38.463Z,41.09
2018-08-22T13:09:08.541Z,41.84
2018-08-22T13:11:37.066Z,41.82
2018-08-22T13:14:05.575Z,42.64
2018-08-22T13:16:34.144Z,42.32
2018-08-22T13:19:02.655Z,41.88
2018-08-22T13:21:31.188Z,41.30
2018-08-22T13:23:59.746Z,41.66
2018-08-22T13:26:28.259Z,41.59
2018-08-22T13:28:56.766Z,41.95
2018-08-22T13:31:25.301Z,41.67
2018-08-22T13:33:53.818Z,41.93
2018-08-22T13:36:22.343Z,42.84
2018-08-22T13:38:50.838Z,42.96
2018-08-22T13:41:19.373Z,43.76
2018-08-22T13:43:47.857Z,43.07
2018-08-22T13:46:16.363Z,42.89
2018-08-22T13:48:45.070Z,43.14
2018-08-22T13:51:13.602Z,42.57
2018-08-22T13:53:42.117Z,43.81
2018-08-22T13:56:10.687Z,43.68
2018-08-22T13:58:39.163Z,44.13
2018-08-22T14:01:07.769Z,41.91
2018-08-22T14:03:36.286Z,42.11
2018-08-22T14:06:04.866Z,41.78
2018-08-22T14:08:33.384Z,42.12
2018-08-22T14:11:01.973Z,42.03
2018-08-22T14:13:30.550Z,42.51
2018-08-22T14:15:59.165Z,42.53
2018-08-22T14:18:28.783Z,41.92
2018-08-22T14:20:57.693Z,41.80
2018-08-22T14:23:26.194Z,41.81
2018-08-22T14:25:54.751Z,41.70
2018-08-22T14:28:23.290Z,41.60
2018-08-22T14:30:57.831Z,41.98
2018-08-22T14:33:27.401Z,42.65
2018-08-22T14:35:55.946Z,42.84
2018-08-22T14:38:24.495Z,43.43
2018-08-22T14:40:53.003Z,43.95
2018-08-22T14:43:21.556Z,43.16
2018-08-22T14:45:50.445Z,42.31
2018-08-22T14:48:19.029Z,42.78
2018-08-22T14:50:47.632Z,42.08
2018-08-22T14:53:16.200Z,41.62
2018-08-22T14:55:44.752Z,41.43
2018-08-22T14:58:15.469Z,41.30
2018-08-22T15:00:43.997Z,41.74
2018-08-22T15:03:12.805Z,41.32
2018-08-22T15:05:41.030Z,41.28
2018-08-22T15:08:13.518Z,40.35
2018-08-22T15:10:45.794Z,40.07
2018-08-22T15:13:14.414Z,40.71
2018-08-22T15:15:43.032Z,40.70
2018-08-22T15:18:21.768Z,41.30
2018-08-22T15:20:50.260Z,41.31
2018-08-22T15:23:18.796Z,40.62
2018-08-22T15:25:47.297Z,40.49
2018-08-22T15:28:15.803Z,41.09
2018-08-22T15:30:44.293Z,41.45
2018-08-22T15:34:37.181Z,41.09
2018-08-22T15:37:05.701Z,41.44
2018-08-22T15:39:34.199Z,42.22
2018-08-22T15:42:02.769Z,41.89
2018-08-22T15:44:31.239Z,41.40
2018-08-22T15:46:59.794Z,40.98
2018-08-22T15:49:28.290Z,40.78
2018-08-22T15:51:56.826Z,40.64
2018-08-22T15:54:25.343Z,40.74
2018-08-22T15:56:53.915Z,40.96
2018-08-22T15:59:22.398Z,41.35
2018-08-22T16:01:50.951Z,41.13
2018-08-22T16:04:19.462Z,41.88
2018-08-22T16:06:53.262Z,41.56
2018-08-22T16:09:27.216Z,40.76
2018-08-22T16:11:55.835Z,41.56
2018-08-22T16:14:24.378Z,41.09
2018-08-22T16:16:52.894Z,41.09
2018-08-22T16:19:21.561Z,40.44
2018-08-22T16:21:50.120Z,40.10
2018-08-22T16:24:18.787Z,39.72
2018-08-22T16:26:47.257Z,39.12
2018-08-22T16:29:15.780Z,39.23
2018-08-22T16:33:09.055Z,39.17
2018-08-22T16:35:37.651Z,38.37
2018-08-22T16:38:10.718Z,38.16
2018-08-22T16:40:41.473Z,38.60
2018-08-22T16:43:10.033Z,38.72
2018-08-22T16:45:45.743Z,38.46
2018-08-22T16:48:19.831Z,38.64
2018-08-22T16:50:49.797Z,38.31
2018-08-22T16:53:18.369Z,38.34
2018-08-22T16:55:48.889Z,38.11
2018-08-22T16:58:17.942Z,37.92
2018-08-22T17:00:47.322Z,37.83
2018-08-22T17:03:15.873Z,37.73
2018-08-22T17:05:44.382Z,37.45
2018-08-22T17:08:12.911Z,37.29
2018-08-22T17:10:58.441Z,36.85
2018-08-22T17:13:52.019Z,36.67
2018-08-22T17:16:21.110Z,36.33
2018-08-22T17:18:49.621Z,35.85
2018-08-22T17:21:18.202Z,35.77
2018-08-22T17:23:47.140Z,35.66
2018-08-22T17:26:18.725Z,35.19
2018-08-22T17:28:50.331Z,35.07
2018-08-22T17:31:19.586Z,34.79
2018-08-22T17:33:50.653Z,34.36
2018-08-22T17:36:19.246Z,34.47
2018-08-22T17:38:49.351Z,34.06
2018-08-22T17:41:20.222Z,33.60
2018-08-22T17:44:07.956Z,33.76
2018-08-22T17:46:38.817Z,33.58
2018-08-22T17:49:07.338Z,33.49
2018-08-22T17:52:12.465Z,32.97
2018-08-22T17:54:41.056Z,32.69
2018-08-22T17:57:24.338Z,32.24
2018-08-22T17:59:52.914Z,31.90
2018-08-22T18:02:21.411Z,31.64
2018-08-22T18:04:56.322Z,31.25
2018-08-22T18:07:24.803Z,31.05
2018-08-22T18:09:53.330Z,30.79
2018-08-22T18:12:25.755Z,30.62
2018-08-22T18:14:56.336Z,30.39
2018-08-22T18:17:24.815Z,30.23
2018-08-22T18:19:53.385Z,29.92
2018-08-22T18:22:21.877Z,29.73
2018-08-22T18:24:54.525Z,29.63
2018-08-22T18:27:23.041Z,29.39
2018-08-22T18:29:51.547Z,29.36
2018-08-22T18:32:20.059Z,29.22
2018-08-22T18:34:59.257Z,29.16
2018-08-22T18:37:29.084Z,29.14
2018-08-22T18:40:19.801Z,29.11
2018-08-22T18:42:50.925Z,28.86
2018-08-22T18:45:19.974Z,28.85
2018-08-22T18:47:48.516Z,28.85
2018-08-22T18:50:17.133Z,28.67
2018-08-22T18:52:48.934Z,28.20
2018-08-22T18:55:17.472Z,28.05
2018-08-22T18:57:46.090Z,27.88
2018-08-22T19:00:14.684Z,27.85
2018-08-22T19:02:43.185Z,27.78
2018-08-22T19:05:19.978Z,27.80
2018-08-22T19:08:01.645Z,27.79
2018-08-22T19:10:31.725Z,27.72
2018-08-22T19:13:05.575Z,27.43
2018-08-22T19:15:34.735Z,27.19
2018-08-22T19:18:04.642Z,27.20
2018-08-22T19:20:33.237Z,27.23
2018-08-22T19:23:03.011Z,27.12
2018-08-22T19:25:31.573Z,27.02
2018-08-22T19:28:01.216Z,27.01
2018-08-22T19:30:29.764Z,26.95
2018-08-22T19:32:58.285Z,26.91
2018-08-22T19:35:27.654Z,26.95
2018-08-22T19:38:01.207Z,26.88
2018-08-22T19:40:29.715Z,26.74
2018-08-22T19:42:58.289Z,26.76
2018-08-22T19:45:26.805Z,26.75
2018-08-22T19:47:55.273Z,26.64
2018-08-22T19:50:23.798Z,26.59
2018-08-22T19:52:52.278Z,26.45
2018-08-22T19:55:20.754Z,26.35
2018-08-22T19:57:49.296Z,26.31
2018-08-22T20:00:17.854Z,26.21
2018-08-22T20:02:46.299Z,26.13
2018-08-22T20:05:14.793Z,26.10
2018-08-22T20:07:43.325Z,26.14
2018-08-22T20:10:11.982Z,26.04
2018-08-22T20:12:51.710Z,25.94
2018-08-22T20:15:20.317Z,25.84
2018-08-22T20:17:50.473Z,25.79
2018-08-22T20:20:19.460Z,25.72
2018-08-22T20:22:51.491Z,25.72
2018-08-22T20:25:19.991Z,25.71
2018-08-22T20:27:48.485Z,25.75
2018-08-22T20:30:18.135Z,25.77
2018-08-22T20:32:59.962Z,25.66
2018-08-22T20:35:32.465Z,25.64
2018-08-22T20:38:05.397Z,25.59
2018-08-22T20:40:33.909Z,25.58
2018-08-22T20:43:02.399Z,25.59
2018-08-22T20:45:36.041Z,25.63
2018-08-22T20:48:07.652Z,25.41
2018-08-22T20:50:37.278Z,25.36
2018-08-22T20:53:07.455Z,25.35
2018-08-22T20:55:35.973Z,25.25
2018-08-22T20:58:05.014Z,25.23
2018-08-22T21:00:35.193Z,25.09
2018-08-22T21:03:03.816Z,25.04
2018-08-22T21:05:32.269Z,24.94
2018-08-22T21:08:00.813Z,24.90
2018-08-22T21:10:29.282Z,24.86
2018-08-22T21:12:57.771Z,24.78
2018-08-22T21:15:26.264Z,24.81
2018-08-22T21:17:54.765Z,24.69
2018-08-22T21:20:25.027Z,24.73
2018-08-22T21:22:54.442Z,24.60
2018-08-22T21:25:22.909Z,24.70
2018-08-22T21:27:51.990Z,24.63
2018-08-22T21:30:20.534Z,24.66
2018-08-22T21:32:49.470Z,24.60
2018-08-22T21:35:24.715Z,24.62
2018-08-22T21:37:54.805Z,24.44
2018-08-22T21:40:23.380Z,24.33
2018-08-22T21:42:51.985Z,24.29
2018-08-22T21:45:20.529Z,24.35
2018-08-22T21:47:49.126Z,24.29
2018-08-22T21:50:17.575Z,24.26
2018-08-22T21:52:55.306Z,24.22
2018-08-22T21:55:27.911Z,24.21
2018-08-22T21:57:56.383Z,24.21
2018-08-22T22:00:27.760Z,24.27
2018-08-22T22:02:56.727Z,24.24
2018-08-22T22:05:36.521Z,24.22
2018-08-22T22:08:05.353Z,24.13
2018-08-22T22:10:34.436Z,23.98
2018-08-22T22:13:02.907Z,23.98
2018-08-22T22:15:36.742Z,23.94
2018-08-22T22:18:06.067Z,23.88
2018-08-22T22:20:34.602Z,23.74
2018-08-22T22:23:03.107Z,23.63
2018-08-22T22:25:32.306Z,23.65
2018-08-22T22:29:27.146Z,23.76
2018-08-22T22:31:55.888Z,23.62
2018-08-22T22:34:24.430Z,23.67
2018-08-22T22:36:53.033Z,23.68
2018-08-22T22:39:37.286Z,23.68
2018-08-22T22:42:11.856Z,23.68
2018-08-22T22:44:47.849Z,23.59
2018-08-22T22:47:21.685Z,23.51
2018-08-22T22:49:53.919Z,23.41
2018-08-22T22:52:29.146Z,23.35
2018-08-22T22:54:58.990Z,23.36
2018-08-22T22:57:27.645Z,23.36
2018-08-22T22:59:56.401Z,23.21
2018-08-22T23:02:26.283Z,23.05
2018-08-22T23:04:55.670Z,22.67
2018-08-22T23:07:27.856Z,22.54
2018-08-22T23:09:57.557Z,22.36
2018-08-22T23:12:31.379Z,22.30
2018-08-22T23:14:59.895Z,22.28
2018-08-22T23:17:28.374Z,22.27
2018-08-22T23:21:11.464Z,22.45
2018-08-22T23:23:39.954Z,22.29
2018-08-22T23:26:16.009Z,22.22
2018-08-22T23:28:45.270Z,22.09
2018-08-22T23:31:18.853Z,22.17
2018-08-22T23:33:47.309Z,22.28
2018-08-22T23:36:15.850Z,22.26
2018-08-22T23:38:44.336Z,22.40
2018-08-22T23:41:12.842Z,22.33
2018-08-22T23:43:50.498Z,22.32
2018-08-22T23:46:19.204Z,22.22
2018-08-22T23:48:54.750Z,22.08
2018-08-22T23:51:23.329Z,22.08
2018-08-22T23:53:51.805Z,22.02
2018-08-22T23:56:27.545Z,22.08
2018-08-22T23:58:57.553Z,22.06
